createdAt,value
2018-09-11T00:00:41.629Z,16.53
2018-09-11T00:03:14.997Z,16.46
2018-09-11T00:08:54.912Z,16.42
2018-09-11T00:11:29.158Z,16.56
2018-09-11T00:14:03.181Z,16.54
2018-09-11T00:16:38.299Z,16.40
2018-09-11T00:19:12.224Z,16.32
2018-09-11T00:21:44.569Z,16.43
2018-09-11T00:26:57.008Z,16.45
2018-09-11T00:29:35.704Z,16.51
2018-09-11T00:32:08.197Z,16.48
2018-09-11T00:34:39.860Z,16.39
2018-09-11T00:37:18.745Z,16.44
2018-09-11T00:39:54.185Z,16.46
2018-09-11T00:42:25.065Z,16.35
2018-09-11T00:44:58.158Z,16.54
2018-09-11T00:47:30.712Z,16.49
2018-09-11T00:50:03.761Z,16.56
2018-09-11T00:52:36.917Z,16.64
2018-09-11T00:55:10.916Z,16.62
2018-09-11T00:57:42.211Z,16.68
2018-09-11T01:00:13.570Z,16.52
2018-09-11T01:02:43.881Z,16.47
2018-09-11T01:05:15.702Z,16.54
2018-09-11T01:07:48.720Z,16.29
2018-09-11T01:10:21.344Z,16.41
2018-09-11T01:12:52.822Z,16.42
2018-09-11T01:15:24.389Z,16.35
2018-09-11T01:17:54.709Z,16.43
2018-09-11T01:20:26.733Z,16.55
2018-09-11T01:22:57.199Z,16.55
2018-09-11T01:25:29.494Z,16.42
2018-09-11T01:27:59.407Z,16.34
2018-09-11T01:30:29.502Z,16.36
2018-09-11T01:32:59.996Z,16.37
2018-09-11T01:35:30.299Z,16.21
2018-09-11T01:38:01.666Z,16.25
2018-09-11T01:40:33.700Z,16.20
2018-09-11T01:43:04.112Z,16.29
2018-09-11T01:45:34.471Z,16.40
2018-09-11T01:48:05.873Z,16.27
2018-09-11T01:50:35.838Z,16.21
2018-09-11T01:53:06.059Z,16.23
2018-09-11T01:55:37.315Z,16.22
2018-09-11T01:58:08.811Z,16.16
2018-09-11T02:00:38.831Z,16.29
2018-09-11T02:03:09.419Z,16.22
2018-09-11T02:05:39.579Z,16.24
2018-09-11T02:08:10.625Z,16.21
2018-09-11T02:10:41.352Z,16.22
2018-09-11T02:13:13.022Z,16.23
2018-09-11T02:15:45.531Z,16.11
2018-09-11T02:18:18.086Z,16.20
2018-09-11T02:20:49.765Z,16.27
2018-09-11T02:23:20.041Z,16.25
2018-09-11T02:25:51.250Z,16.34
2018-09-11T02:28:23.057Z,16.27
2018-09-11T02:30:54.818Z,16.31
2018-09-11T02:33:25.245Z,16.21
2018-09-11T02:35:55.926Z,16.15
2018-09-11T02:38:27.938Z,16.13
2018-09-11T02:41:01.031Z,16.14
2018-09-11T02:43:31.282Z,16.15
2018-09-11T02:46:03.314Z,16.15
2018-09-11T02:48:34.045Z,16.21
2018-09-11T02:51:05.395Z,16.00
2018-09-11T02:53:40.566Z,16.05
2018-09-11T02:56:11.558Z,16.11
2018-09-11T02:58:42.824Z,16.13
2018-09-11T03:01:14.326Z,16.08
2018-09-11T03:03:44.888Z,16.06
2018-09-11T03:06:21.575Z,16.12
2018-09-11T03:08:53.215Z,16.03
2018-09-11T03:11:23.356Z,16.01
2018-09-11T03:13:53.760Z,15.95
2018-09-11T03:16:25.931Z,16.01
2018-09-11T03:18:56.381Z,15.97
2018-09-11T03:21:30.867Z,15.89
2018-09-11T03:24:10.343Z,15.96
2018-09-11T03:26:42.811Z,15.99
2018-09-11T03:29:15.303Z,15.88
2018-09-11T03:31:46.197Z,15.90
2018-09-11T03:34:17.150Z,15.87
2018-09-11T03:36:51.220Z,15.90
2018-09-11T03:39:21.589Z,15.87
2018-09-11T03:41:52.285Z,15.89
2018-09-11T03:44:25.330Z,15.89
2018-09-11T03:46:55.926Z,15.78
2018-09-11T03:52:41.545Z,15.75
2018-09-11T03:55:14.217Z,15.79
2018-09-11T03:57:49.554Z,15.74
2018-09-11T04:00:20.261Z,15.75
2018-09-11T04:02:52.051Z,15.60
2018-09-11T04:05:29.265Z,15.60
2018-09-11T04:08:06.343Z,15.58
2018-09-11T04:10:42.808Z,15.51
2018-09-11T04:13:19.659Z,15.60
2018-09-11T04:15:54.600Z,15.59
2018-09-11T04:18:26.456Z,15.58
2018-09-11T04:21:03.006Z,15.60
2018-09-11T04:23:38.243Z,15.48
2018-09-11T04:26:14.213Z,15.33
2018-09-11T04:28:49.664Z,15.31
2018-09-11T04:31:21.620Z,15.28
2018-09-11T04:33:52.048Z,15.33
2018-09-11T04:36:22.421Z,15.36
2018-09-11T04:39:01.092Z,15.42
2018-09-11T04:41:32.546Z,15.43
2018-09-11T04:44:04.621Z,15.34
2018-09-11T04:46:35.224Z,15.39
2018-09-11T04:49:06.343Z,15.38
2018-09-11T04:51:38.047Z,15.31
2018-09-11T04:54:09.144Z,15.35
2018-09-11T04:56:39.361Z,15.35
2018-09-11T04:59:09.793Z,15.30
2018-09-11T05:01:41.141Z,15.36
2018-09-11T05:04:11.719Z,15.45
2018-09-11T05:06:44.107Z,15.48
2018-09-11T05:09:14.926Z,15.36
2018-09-11T05:11:46.747Z,15.43
2018-09-11T05:14:19.879Z,15.53
2018-09-11T05:16:51.733Z,15.71
2018-09-11T05:19:32.615Z,15.72
2018-09-11T05:22:12.137Z,15.79
2018-09-11T05:24:43.344Z,15.76
2018-09-11T05:30:15.058Z,15.67
2018-09-11T05:32:50.281Z,15.74
2018-09-11T05:35:24.732Z,15.83
2018-09-11T05:37:58.549Z,15.76
2018-09-11T05:40:29.891Z,15.77
2018-09-11T05:43:01.533Z,15.81
2018-09-11T05:45:34.225Z,15.80
2018-09-11T05:48:12.608Z,15.84
2018-09-11T05:50:44.217Z,15.83
2018-09-11T05:53:14.492Z,15.90
2018-09-11T05:58:21.670Z,16.06
2018-09-11T06:00:54.737Z,16.05
2018-09-11T06:03:26.761Z,16.14
2018-09-11T06:06:00.756Z,16.18
2018-09-11T06:08:32.529Z,16.25
2018-09-11T06:11:11.563Z,16.29
2018-09-11T06:13:48.321Z,16.21
2018-09-11T06:16:30.916Z,16.07
2018-09-11T06:19:04.160Z,16.12
2018-09-11T06:21:36.943Z,16.22
2018-09-11T06:24:10.161Z,16.24
2018-09-11T06:26:49.089Z,16.31
2018-09-11T06:32:00.311Z,16.32
2018-09-11T06:34:32.668Z,16.37
2018-09-11T06:37:10.125Z,16.16
2018-09-11T06:39:45.741Z,16.12
2018-09-11T06:42:18.673Z,16.16
2018-09-11T06:44:53.588Z,16.33
2018-09-11T06:47:26.386Z,16.23
2018-09-11T06:49:58.325Z,16.17
2018-09-11T06:52:32.667Z,16.18
2018-09-11T06:55:20.808Z,16.32
2018-09-11T07:07:41.471Z,16.47
2018-09-11T07:10:29.914Z,16.41
2018-09-11T07:13:27.999Z,16.44
2018-09-11T07:16:02.311Z,16.27
2018-09-11T07:22:22.542Z,16.35
2018-09-11T07:25:04.912Z,16.39
2018-09-11T07:27:46.621Z,16.50
2018-09-11T07:30:31.986Z,16.57
2018-09-11T07:33:12.665Z,16.58
2018-09-11T07:35:56.680Z,16.60
2018-09-11T07:38:34.912Z,16.81
2018-09-11T07:41:26.018Z,16.72
2018-09-11T07:44:11.274Z,16.58
2018-09-11T07:47:00.212Z,16.65
2018-09-11T07:49:42.500Z,16.64
2018-09-11T07:52:22.581Z,16.75
2018-09-11T07:54:58.814Z,16.84
2018-09-11T07:57:35.043Z,16.87
2018-09-11T08:03:02.072Z,16.99
2018-09-11T08:05:40.574Z,16.91
2018-09-11T08:08:17.576Z,16.95
2018-09-11T08:10:53.665Z,17.05
2018-09-11T08:13:24.871Z,17.05
2018-09-11T08:15:55.831Z,17.06
2018-09-11T08:18:26.132Z,17.13
2018-09-11T08:20:56.533Z,17.09
2018-09-11T08:23:26.464Z,17.13
2018-09-11T08:25:57.314Z,17.11
2018-09-11T08:28:27.709Z,17.07
2018-09-11T08:30:58.774Z,17.20
2018-09-11T08:33:29.894Z,17.21
2018-09-11T08:36:06.662Z,17.32
2018-09-11T08:41:20.769Z,17.31
2018-09-11T08:43:59.195Z,17.33
2018-09-11T08:46:30.166Z,17.28
2018-09-11T08:49:07.117Z,17.14
2018-09-11T08:51:39.083Z,17.18
2018-09-11T08:54:16.410Z,17.22
2018-09-11T09:02:55.203Z,17.30
2018-09-11T09:07:05.363Z,17.28
2018-09-11T09:09:43.061Z,17.21
2018-09-11T09:12:14.904Z,17.31
2018-09-11T09:14:53.801Z,17.28
2018-09-11T09:17:26.018Z,17.35
2018-09-11T09:19:58.169Z,17.33
2018-09-11T09:22:29.099Z,17.31
2018-09-11T09:27:39.216Z,17.41
2018-09-11T09:30:11.219Z,17.46
2018-09-11T09:32:43.425Z,17.49
2018-09-11T09:35:16.570Z,17.53
2018-09-11T09:37:47.334Z,17.56
2018-09-11T09:40:20.755Z,17.64
2018-09-11T09:42:53.725Z,17.63
2018-09-11T09:45:29.365Z,17.58
2018-09-11T09:53:34.483Z,17.72
2018-09-11T09:56:12.077Z,17.69
2018-09-11T09:59:04.616Z,17.61
2018-09-11T10:04:55.222Z,17.58
2018-09-11T10:13:01.142Z,17.27
2018-09-11T10:15:40.550Z,17.33
2018-09-11T10:18:27.706Z,17.23
2018-09-11T10:23:47.431Z,17.07
2018-09-11T10:26:28.557Z,17.13
2018-09-11T10:29:02.366Z,17.03
2018-09-11T10:31:40.054Z,17.11
2018-09-11T10:34:15.286Z,17.11
2018-09-11T10:39:26.443Z,17.13
2018-09-11T10:41:58.434Z,17.16
2018-09-11T10:44:32.627Z,17.20
2018-09-11T10:47:05.150Z,17.19
2018-09-11T10:49:42.317Z,17.26
2018-09-11T10:55:14.956Z,17.25
2018-09-11T10:57:58.472Z,17.32
2018-09-11T11:00:43.231Z,17.40
2018-09-11T11:03:15.857Z,17.43
2018-09-11T11:05:57.051Z,17.52
2018-09-11T11:08:33.560Z,17.52
2018-09-11T11:11:16.568Z,17.54
2018-09-11T11:14:09.688Z,17.62
2018-09-11T11:20:08.556Z,17.63
2018-09-11T11:22:41.948Z,17.58
2018-09-11T11:30:59.806Z,17.55
2018-09-11T11:33:43.364Z,17.59
2018-09-11T11:36:22.380Z,17.58
2018-09-11T11:38:56.564Z,17.60
2018-09-11T11:41:40.907Z,17.71
2018-09-11T11:57:25.722Z,17.93
2018-09-11T11:59:56.587Z,17.96
2018-09-11T12:02:35.389Z,18.01
2018-09-11T12:05:28.076Z,18.02
2018-09-11T12:07:59.394Z,18.07
2018-09-11T12:10:34.195Z,18.05
2018-09-11T12:13:07.351Z,18.04
2018-09-11T12:15:37.509Z,17.99
2018-09-11T12:18:07.736Z,18.00
2018-09-11T12:20:37.713Z,18.04
2018-09-11T12:23:08.749Z,18.03
2018-09-11T12:25:42.967Z,18.03
2018-09-11T12:28:13.783Z,18.04
2018-09-11T12:30:45.539Z,18.04
2018-09-11T12:33:15.704Z,17.95
2018-09-11T12:35:47.493Z,17.93
2018-09-11T12:38:17.833Z,17.93
2018-09-11T12:40:49.451Z,17.96
2018-09-11T12:43:19.418Z,17.91
2018-09-11T12:45:49.524Z,17.99
2018-09-11T12:48:19.786Z,17.91
2018-09-11T12:50:52.281Z,17.93
2018-09-11T12:53:22.975Z,17.88
2018-09-11T12:55:55.379Z,17.86
2018-09-11T12:58:26.461Z,17.88
2018-09-11T13:00:56.348Z,17.91
2018-09-11T13:03:27.924Z,17.96
2018-09-11T13:05:58.864Z,17.98
2018-09-11T13:08:30.599Z,18.01
2018-09-11T13:11:00.806Z,18.07
2018-09-11T13:13:32.004Z,18.12
2018-09-11T13:16:02.103Z,18.14
2018-09-11T13:18:32.850Z,18.22
2018-09-11T13:21:03.438Z,18.16
2018-09-11T13:23:35.196Z,18.14
2018-09-11T13:26:05.313Z,18.14
2018-09-11T13:28:36.554Z,18.10
2018-09-11T13:31:07.280Z,18.11
2018-09-11T13:33:37.847Z,18.05
2018-09-11T13:36:08.781Z,17.95
2018-09-11T13:38:39.664Z,17.87
2018-09-11T13:41:10.026Z,17.84
2018-09-11T13:43:41.232Z,17.80
2018-09-11T13:46:11.278Z,17.82
2018-09-11T13:48:41.269Z,17.72
2018-09-11T13:51:13.565Z,17.79
2018-09-11T13:53:43.793Z,17.69
2018-09-11T13:56:14.797Z,17.73
2018-09-11T13:58:46.900Z,17.71
2018-09-11T14:01:22.869Z,17.70
2018-09-11T14:03:52.875Z,17.67
2018-09-11T14:06:23.031Z,17.70
2018-09-11T14:08:55.193Z,17.69
2018-09-11T14:11:25.296Z,17.63
2018-09-11T14:13:55.417Z,17.67
2018-09-11T14:16:25.538Z,17.66
2018-09-11T14:18:55.915Z,17.66
2018-09-11T14:21:26.394Z,17.69
2018-09-11T14:23:56.413Z,17.70
2018-09-11T14:26:27.051Z,17.67
2018-09-11T14:28:57.724Z,17.66
2018-09-11T14:31:28.864Z,17.70
2018-09-11T14:33:59.899Z,17.71
2018-09-11T14:39:12.328Z,17.73
2018-09-11T14:41:42.502Z,17.68
2018-09-11T14:44:13.519Z,17.68
2018-09-11T14:46:44.174Z,17.73
2018-09-11T14:49:17.539Z,17.76
2018-09-11T14:51:48.815Z,17.78
2018-09-11T14:54:18.937Z,17.77
2018-09-11T14:56:49.886Z,17.76
2018-09-11T14:59:22.211Z,17.78
2018-09-11T15:01:58.086Z,17.84
2018-09-11T15:04:29.844Z,17.88
2018-09-11T15:07:00.488Z,17.89
2018-09-11T15:09:37.542Z,17.88
2018-09-11T15:12:07.714Z,17.89
2018-09-11T15:14:39.173Z,17.90
2018-09-11T15:17:10.208Z,17.92
2018-09-11T15:19:39.998Z,17.92
2018-09-11T15:22:09.887Z,17.94
2018-09-11T15:24:39.961Z,17.98
2018-09-11T15:27:10.058Z,17.97
2018-09-11T15:29:40.110Z,18.01
2018-09-11T15:32:10.790Z,18.05
2018-09-11T15:34:40.627Z,18.12
2018-09-11T15:37:10.616Z,18.10
2018-09-11T15:39:40.681Z,18.11
2018-09-11T15:42:13.134Z,18.06
2018-09-11T15:44:43.799Z,18.07
2018-09-11T15:47:14.082Z,18.06
2018-09-11T15:52:25.839Z,18.07
2018-09-11T15:54:55.953Z,18.06
2018-09-11T15:57:26.052Z,18.03
2018-09-11T15:59:56.512Z,18.00
2018-09-11T16:02:26.801Z,18.01
2018-09-11T16:04:58.000Z,17.99
2018-09-11T16:07:28.064Z,18.00
2018-09-11T16:09:58.827Z,18.00
2018-09-11T16:12:31.163Z,17.98
2018-09-11T16:15:06.546Z,17.94
2018-09-11T16:17:40.171Z,17.94
2018-09-11T16:20:14.051Z,17.91
2018-09-11T16:22:45.171Z,17.94
2018-09-11T16:25:15.081Z,17.92
2018-09-11T16:27:58.569Z,17.92
2018-09-11T16:33:29.911Z,17.88
2018-09-11T16:36:03.939Z,17.91
2018-09-11T16:38:36.285Z,17.86
2018-09-11T16:41:10.473Z,17.84
2018-09-11T16:43:42.763Z,17.86
2018-09-11T16:46:13.796Z,17.84
2018-09-11T16:48:59.922Z,17.83
2018-09-11T16:51:30.300Z,17.89
2018-09-11T16:54:00.598Z,17.89
2018-09-11T16:56:34.808Z,17.83
2018-09-11T16:59:04.886Z,17.66
2018-09-11T17:01:35.406Z,17.62
2018-09-11T17:04:07.680Z,17.55
2018-09-11T17:06:40.044Z,17.55
2018-09-11T17:16:47.977Z,17.43
2018-09-11T17:19:18.637Z,17.37
2018-09-11T17:21:51.434Z,17.30
2018-09-11T17:24:22.023Z,17.31
2018-09-11T17:26:52.535Z,17.32
2018-09-11T17:29:22.933Z,17.36
2018-09-11T17:31:56.707Z,17.35
2018-09-11T17:34:26.833Z,17.36
2018-09-11T17:36:59.061Z,17.34
2018-09-11T17:39:29.020Z,17.37
2018-09-11T17:41:59.885Z,17.36
2018-09-11T17:44:30.704Z,17.26
2018-09-11T17:47:01.908Z,17.21
2018-09-11T17:49:34.736Z,17.20
2018-09-11T17:52:06.627Z,17.24
2018-09-11T17:54:37.402Z,17.24
2018-09-11T17:57:10.771Z,17.22
2018-09-11T17:59:40.789Z,17.16
2018-09-11T18:02:11.933Z,17.24
2018-09-11T18:04:42.544Z,17.23
2018-09-11T18:07:15.018Z,17.22
2018-09-11T18:09:45.206Z,17.18
2018-09-11T18:12:21.286Z,17.19
2018-09-11T18:14:51.734Z,17.20
2018-09-11T18:17:23.143Z,17.24
2018-09-11T18:19:53.121Z,17.17
2018-09-11T18:22:27.755Z,17.14
2018-09-11T18:24:58.664Z,17.19
2018-09-11T18:27:28.852Z,17.15
2018-09-11T18:29:59.806Z,17.08
2018-09-11T18:32:30.563Z,17.10
2018-09-11T18:35:01.799Z,17.12
2018-09-11T18:37:32.014Z,17.11
2018-09-11T18:40:02.140Z,17.06
2018-09-11T18:42:32.270Z,17.06
2018-09-11T18:45:03.318Z,17.03
2018-09-11T18:47:34.286Z,17.00
2018-09-11T18:50:05.931Z,17.05
2018-09-11T18:52:38.056Z,16.96
2018-09-11T18:55:08.820Z,16.97
2018-09-11T18:57:39.976Z,16.90
2018-09-11T19:00:10.502Z,16.88
2018-09-11T19:02:44.466Z,16.85
2018-09-11T19:05:15.972Z,16.89
2018-09-11T19:07:48.106Z,16.90
2018-09-11T19:10:19.583Z,16.89
2018-09-11T19:12:51.562Z,16.88
2018-09-11T19:15:21.879Z,16.88
2018-09-11T19:17:51.981Z,16.90
2018-09-11T19:20:25.144Z,16.95
2018-09-11T19:22:56.402Z,16.95
2018-09-11T19:25:30.399Z,16.94
2018-09-11T19:28:00.410Z,16.94
2018-09-11T19:30:32.675Z,16.88
2018-09-11T19:33:03.041Z,16.90
2018-09-11T19:35:33.526Z,16.89
2018-09-11T19:38:07.435Z,16.91
2018-09-11T19:40:38.855Z,16.90
2018-09-11T19:43:09.811Z,16.93
2018-09-11T19:45:40.571Z,16.93
2018-09-11T19:48:10.984Z,16.87
2018-09-11T19:50:41.790Z,16.89
2018-09-11T19:53:12.778Z,16.88
2018-09-11T19:55:44.118Z,16.85
2018-09-11T19:58:18.029Z,16.77
2018-09-11T20:01:05.199Z,16.83
2018-09-11T20:03:45.130Z,16.82
2018-09-11T20:07:03.375Z,16.85
2018-09-11T20:10:19.753Z,16.85
2018-09-11T20:16:02.178Z,16.85
2018-09-11T20:18:34.472Z,16.83
2018-09-11T20:21:06.803Z,16.86
2018-09-11T20:23:36.964Z,16.87
2018-09-11T20:26:11.298Z,16.88
2018-09-11T20:28:43.738Z,16.78
2018-09-11T20:31:14.118Z,16.81
2018-09-11T20:33:44.876Z,16.79
2018-09-11T20:36:16.404Z,16.76
2018-09-11T20:38:47.132Z,16.81
2018-09-11T20:41:19.009Z,16.78
2018-09-11T20:51:12.263Z,16.65
2018-09-11T20:53:45.707Z,16.62
2018-09-11T20:56:20.479Z,16.59
2018-09-11T20:58:53.372Z,16.57
2018-09-11T21:01:25.273Z,16.50
2018-09-11T21:03:59.985Z,16.51
2018-09-11T21:06:33.933Z,16.46
2018-09-11T21:09:05.235Z,16.48
2018-09-11T21:11:35.780Z,16.45
2018-09-11T21:14:07.580Z,16.34
2018-09-11T21:16:43.607Z,16.33
2018-09-11T21:19:16.307Z,16.35
2018-09-11T21:31:43.075Z,16.33
2018-09-11T21:34:14.229Z,16.32
2018-09-11T21:36:44.745Z,16.32
2018-09-11T21:39:14.773Z,16.30
2018-09-11T21:41:45.399Z,16.22
2018-09-11T21:44:17.148Z,16.16
2018-09-11T21:46:49.817Z,16.13
2018-09-11T21:49:22.923Z,16.09
2018-09-11T21:51:53.148Z,16.02
2018-09-11T21:54:27.049Z,15.94
2018-09-11T21:57:00.275Z,15.94
2018-09-11T21:59:30.363Z,15.95
2018-09-11T22:02:01.344Z,15.90
2018-09-11T22:04:34.793Z,15.85
2018-09-11T22:07:10.237Z,15.93
2018-09-11T22:09:40.240Z,15.87
2018-09-11T22:12:11.516Z,15.92
2018-09-11T22:14:42.747Z,15.88
2018-09-11T22:17:15.941Z,15.86
2018-09-11T22:19:48.439Z,15.75
2018-09-11T22:22:18.538Z,15.75
2018-09-11T22:24:48.827Z,15.77
2018-09-11T22:27:20.513Z,15.74
2018-09-11T22:29:52.488Z,15.76
2018-09-11T22:32:22.407Z,15.72
2018-09-11T22:34:52.444Z,15.79
2018-09-11T23:21:39.852Z,14.91
2018-09-11T23:24:09.841Z,14.91
2018-09-11T23:26:43.868Z,14.96
2018-09-11T23:29:15.581Z,14.93
2018-09-11T23:31:48.326Z,14.97
2018-09-11T23:34:18.925Z,14.94
2018-09-11T23:36:48.880Z,15.02
2018-09-11T23:39:19.045Z,15.02
2018-09-11T23:41:49.472Z,14.97
2018-09-11T23:44:22.016Z,14.91
2018-09-11T23:46:54.405Z,14.95
2018-09-11T23:49:26.558Z,14.97
2018-09-11T23:51:57.262Z,14.94
2018-09-11T23:54:27.367Z,14.83
2018-09-11T23:56:58.838Z,14.87
2018-09-11T23:59:31.419Z,14.87
